createdAt,value
2022-12-18T00:03:20.843Z,20.60
2022-12-18T00:08:23.038Z,20.08
2022-12-18T00:13:25.248Z,21.08
2022-12-18T00:18:30.346Z,19.00
2022-12-18T00:23:36.499Z,18.98
2022-12-18T00:28:38.828Z,17.67
2022-12-18T00:33:41.850Z,19.23
2022-12-18T00:38:44.205Z,17.23
2022-12-18T00:43:46.403Z,16.90
2022-12-18T00:48:48.152Z,18.23
2022-12-18T00:53:50.309Z,19.75
2022-12-18T00:58:52.483Z,17.73
2022-12-18T01:03:54.630Z,17.38
2022-12-18T01:08:57.076Z,15.93
2022-12-18T01:13:59.147Z,16.88
2022-12-18T01:19:01.456Z,19.33
2022-12-18T01:24:03.764Z,17.27
2022-12-18T01:29:05.937Z,18.63
2022-12-18T01:34:08.168Z,17.80
2022-12-18T01:39:14.477Z,18.83
2022-12-18T01:44:54.209Z,18.85
2022-12-18T01:49:57.955Z,18.42
2022-12-18T01:55:01.771Z,19.10
2022-12-18T02:00:09.135Z,20.95
2022-12-18T02:05:12.934Z,16.80
2022-12-18T02:10:27.969Z,16.73
2022-12-18T02:15:47.928Z,16.35
2022-12-18T02:21:07.060Z,17.77
2022-12-18T02:26:21.797Z,16.98
2022-12-18T02:31:28.714Z,16.35
2022-12-18T02:36:33.442Z,18.20
2022-12-18T02:41:37.697Z,17.23
2022-12-18T02:46:41.637Z,16.55
2022-12-18T02:51:57.230Z,17.40
2022-12-18T02:57:06.742Z,16.88
2022-12-18T03:02:30.125Z,16.52
2022-12-18T03:08:06.998Z,15.70
2022-12-18T03:13:21.773Z,16.30
2022-12-18T03:18:30.849Z,15.77
2022-12-18T03:23:39.581Z,17.58
2022-12-18T03:28:52.231Z,15.77
2022-12-18T03:34:07.042Z,16.92
2022-12-18T03:39:09.277Z,16.65
2022-12-18T03:44:19.549Z,16.73
2022-12-18T03:49:43.863Z,16.30
2022-12-18T03:54:47.374Z,17.52
2022-12-18T03:59:55.497Z,16.35
2022-12-18T04:05:00.742Z,14.35
2022-12-18T04:10:03.300Z,15.77
2022-12-18T04:15:06.406Z,16.13
2022-12-18T04:20:08.662Z,17.13
2022-12-18T04:25:11.052Z,17.85
2022-12-18T04:30:13.536Z,14.98
2022-12-18T04:35:15.603Z,16.23
2022-12-18T04:40:18.926Z,15.48
2022-12-18T04:45:20.970Z,14.50
2022-12-18T04:50:23.057Z,15.98
2022-12-18T04:55:25.175Z,16.38
2022-12-18T05:00:27.003Z,16.42
2022-12-18T05:05:29.720Z,16.20
2022-12-18T05:10:37.727Z,17.08
2022-12-18T05:15:40.558Z,13.02
2022-12-18T05:20:42.731Z,15.02
2022-12-18T05:25:51.560Z,14.10
2022-12-18T05:30:56.176Z,14.88
2022-12-18T05:36:00.589Z,13.48
2022-12-18T05:41:02.655Z,14.23
2022-12-18T05:46:09.277Z,13.48
2022-12-18T05:51:15.364Z,13.93
2022-12-18T05:56:20.454Z,13.23
2022-12-18T06:01:25.424Z,13.65
2022-12-18T06:06:28.766Z,13.75
2022-12-18T06:11:30.477Z,13.23
2022-12-18T06:16:32.680Z,12.55
2022-12-18T06:21:34.847Z,12.90
2022-12-18T06:26:39.937Z,12.82
2022-12-18T06:31:41.779Z,12.45
2022-12-18T06:36:43.871Z,13.00
2022-12-18T06:41:45.986Z,13.35
2022-12-18T06:46:48.032Z,11.93
2022-12-18T06:51:50.061Z,14.13
2022-12-18T06:56:52.139Z,13.45
2022-12-18T07:01:54.436Z,13.57
2022-12-18T07:06:56.682Z,13.82
2022-12-18T07:11:58.747Z,15.07
2022-12-18T07:17:01.712Z,12.63
2022-12-18T07:22:04.257Z,12.95
2022-12-18T07:27:06.665Z,13.02
2022-12-18T07:32:10.229Z,13.20
2022-12-18T07:37:12.279Z,13.73
2022-12-18T07:42:32.585Z,14.75
2022-12-18T07:47:37.666Z,13.45
2022-12-18T07:52:39.772Z,14.18
2022-12-18T07:57:50.366Z,14.07
2022-12-18T08:02:54.338Z,15.25
2022-12-18T08:07:57.108Z,15.95
2022-12-18T08:13:04.716Z,18.05
2022-12-18T08:18:11.358Z,28.88
2022-12-18T08:23:16.042Z,21.95
2022-12-18T08:28:17.813Z,22.42
2022-12-18T08:33:19.926Z,24.42
2022-12-18T08:38:22.071Z,27.05
2022-12-18T08:43:43.015Z,23.10
2022-12-18T08:48:45.231Z,22.88
2022-12-18T08:53:47.363Z,24.52
2022-12-18T08:58:52.791Z,22.58
2022-12-18T09:03:54.668Z,23.80
2022-12-18T09:08:56.348Z,25.52
2022-12-18T09:13:59.562Z,22.80
2022-12-18T09:19:01.971Z,22.27
2022-12-18T09:24:04.264Z,21.15
2022-12-18T09:29:08.333Z,23.20
2022-12-18T09:34:10.477Z,19.77
2022-12-18T09:39:12.652Z,21.00
2022-12-18T09:44:25.622Z,21.83
2022-12-18T09:49:30.757Z,23.30
2022-12-18T09:54:45.206Z,19.83
2022-12-18T10:00:09.738Z,19.17
2022-12-18T10:05:16.763Z,18.23
2022-12-18T10:10:43.007Z,18.17
2022-12-18T10:15:55.632Z,19.17
2022-12-18T10:21:04.821Z,19.67
2022-12-18T10:26:10.354Z,21.58
2022-12-18T10:31:19.404Z,19.00
2022-12-18T10:36:21.556Z,18.42
2022-12-18T10:41:27.708Z,22.33
2022-12-18T10:46:31.683Z,20.30
2022-12-18T10:51:38.525Z,20.45
2022-12-18T10:56:40.684Z,19.70
2022-12-18T11:01:46.965Z,20.20
2022-12-18T11:07:01.072Z,20.02
2022-12-18T11:12:07.194Z,22.52
2022-12-18T11:17:35.996Z,20.55
2022-12-18T11:22:39.263Z,21.75
2022-12-18T11:27:41.627Z,21.00
2022-12-18T11:32:50.797Z,18.30
2022-12-18T11:37:59.652Z,19.88
2022-12-18T11:43:15.804Z,19.70
2022-12-18T11:48:31.769Z,20.95
2022-12-18T11:53:33.482Z,21.63
2022-12-18T11:58:41.555Z,21.88
2022-12-18T12:04:13.419Z,19.17
2022-12-18T12:09:35.375Z,22.67
2022-12-18T12:14:49.135Z,19.65
2022-12-18T12:20:23.353Z,20.50
2022-12-18T12:25:33.215Z,20.67
2022-12-18T12:30:50.052Z,18.98
2022-12-18T12:36:22.350Z,19.08
2022-12-18T12:41:46.383Z,17.27
2022-12-18T12:46:51.068Z,17.95
2022-12-18T12:52:31.518Z,17.80
2022-12-18T12:57:40.859Z,21.58
2022-12-18T13:02:54.479Z,17.63
2022-12-18T13:08:09.672Z,17.45
2022-12-18T13:13:17.114Z,16.15
2022-12-18T13:18:20.796Z,17.35
2022-12-18T13:23:26.120Z,17.65
2022-12-18T13:28:48.749Z,17.05
2022-12-18T13:44:40.931Z,17.25
2022-12-18T13:49:45.437Z,16.67
2022-12-18T13:54:53.333Z,17.33
2022-12-18T13:59:57.097Z,18.05
2022-12-18T14:04:59.085Z,17.00
2022-12-18T14:10:33.822Z,17.67
2022-12-18T14:15:27.209Z,18.90
2022-12-18T14:20:33.094Z,17.85
2022-12-18T14:25:35.188Z,17.02
2022-12-18T14:30:39.825Z,16.23
2022-12-18T14:35:53.707Z,15.93
2022-12-18T14:41:03.804Z,14.95
2022-12-18T14:46:36.391Z,16.20
2022-12-18T14:51:38.535Z,16.88
2022-12-18T14:56:47.048Z,16.02
2022-12-18T15:01:59.237Z,14.93
2022-12-18T15:07:10.887Z,16.30
2022-12-18T15:12:36.760Z,15.80
2022-12-18T15:17:38.946Z,15.70
2022-12-18T15:22:40.991Z,13.90
2022-12-18T15:27:48.207Z,14.75
2022-12-18T15:32:51.040Z,15.20
2022-12-18T15:37:53.315Z,16.17
2022-12-18T15:43:14.727Z,15.90
2022-12-18T15:48:24.150Z,14.05
2022-12-18T15:53:33.317Z,15.25
2022-12-18T15:58:35.380Z,15.18
2022-12-18T16:03:37.375Z,14.68
2022-12-18T16:08:39.603Z,16.00
2022-12-18T16:13:43.991Z,15.60
2022-12-18T16:18:46.101Z,15.63
2022-12-18T16:23:48.162Z,15.27
2022-12-18T16:28:49.832Z,14.95
2022-12-18T16:34:23.008Z,15.25
2022-12-18T16:39:27.702Z,14.43
2022-12-18T16:44:29.809Z,14.57
2022-12-18T16:49:31.986Z,15.52
2022-12-18T16:54:36.484Z,15.35
2022-12-18T16:59:38.685Z,15.90
2022-12-18T17:04:40.902Z,16.23
2022-12-18T17:09:43.349Z,15.45
2022-12-18T17:14:45.580Z,15.70
2022-12-18T17:19:51.417Z,15.20
2022-12-18T17:24:54.581Z,16.63
2022-12-18T17:29:57.275Z,16.65
2022-12-18T17:35:05.442Z,15.57
2022-12-18T17:40:10.903Z,17.08
2022-12-18T17:45:13.133Z,16.02
2022-12-18T17:50:15.336Z,15.93
2022-12-18T17:55:17.569Z,17.33
2022-12-18T18:00:19.958Z,15.48
2022-12-18T18:05:22.177Z,17.25
2022-12-18T18:10:23.994Z,15.48
2022-12-18T18:15:26.082Z,16.40
2022-12-18T18:20:30.507Z,16.50
2022-12-18T18:25:36.712Z,15.55
2022-12-18T18:30:39.111Z,14.98
2022-12-18T18:35:53.902Z,15.05
2022-12-18T18:41:04.301Z,16.70
2022-12-18T18:46:06.767Z,17.17
2022-12-18T18:51:19.081Z,19.77
2022-12-18T19:01:47.151Z,15.82
2022-12-18T19:06:49.460Z,16.95
2022-12-18T19:12:10.558Z,16.33
2022-12-18T19:17:12.458Z,17.08
2022-12-18T19:22:14.360Z,16.75
2022-12-18T19:27:16.507Z,15.95
2022-12-18T19:32:18.357Z,17.35
2022-12-18T19:37:20.184Z,16.30
2022-12-18T19:42:28.162Z,17.77
2022-12-18T19:47:34.105Z,16.98
2022-12-18T19:52:36.265Z,19.52
2022-12-18T19:57:38.082Z,20.00
2022-12-18T20:02:40.435Z,19.70
2022-12-18T20:07:42.750Z,20.92
2022-12-18T20:12:46.544Z,18.40
2022-12-18T20:17:48.395Z,17.95
2022-12-18T20:22:50.105Z,19.17
2022-12-18T20:27:51.980Z,17.20
2022-12-18T20:32:54.133Z,17.55
2022-12-18T20:37:56.495Z,14.68
2022-12-18T20:42:59.077Z,15.10
2022-12-18T20:48:01.618Z,14.60
2022-12-18T20:53:03.853Z,17.17
2022-12-18T20:58:05.624Z,15.23
2022-12-18T21:03:07.510Z,16.02
2022-12-18T21:08:09.854Z,15.70
2022-12-18T21:13:14.880Z,14.73
2022-12-18T21:18:18.818Z,25.05
2022-12-18T21:23:21.003Z,12.80
2022-12-18T21:28:23.108Z,15.55
2022-12-18T21:33:25.401Z,15.40
2022-12-18T21:38:28.398Z,14.98
2022-12-18T21:43:49.160Z,15.02
2022-12-18T21:48:50.895Z,14.90
2022-12-18T21:53:52.634Z,14.65
2022-12-18T21:58:56.760Z,15.90
2022-12-18T22:03:59.644Z,14.63
2022-12-18T22:09:01.874Z,15.73
2022-12-18T22:14:03.733Z,16.98
2022-12-18T22:19:06.011Z,15.50
2022-12-18T22:24:19.614Z,16.27
2022-12-18T22:29:41.741Z,16.45
2022-12-18T22:34:43.553Z,15.75
2022-12-18T22:39:45.393Z,16.60
2022-12-18T22:44:47.834Z,16.48
2022-12-18T22:49:49.616Z,17.75
2022-12-18T22:54:51.421Z,18.55
2022-12-18T22:59:55.970Z,16.75
2022-12-18T23:04:58.129Z,16.80
2022-12-18T23:10:00.703Z,16.52
2022-12-18T23:15:03.997Z,16.05
2022-12-18T23:20:06.226Z,16.40
2022-12-18T23:25:08.432Z,16.55
2022-12-18T23:30:10.750Z,16.65
2022-12-18T23:35:15.552Z,16.58
2022-12-18T23:40:18.055Z,15.95
2022-12-18T23:45:19.951Z,15.38
2022-12-18T23:50:23.648Z,16.35
2022-12-18T23:55:30.968Z,16.02
